sensor_id;sensor_type;location;lat;lon;timestamp;temperature;humidity
7658;DHT22;8462;53.156;8.220;2023-02-15T00:01:07;5.50;90.00
7658;DHT22;8462;53.156;8.220;2023-02-15T00:03:34;5.50;90.50
7658;DHT22;8462;53.156;8.220;2023-02-15T00:06:03;5.50;90.20
7658;DHT22;8462;53.156;8.220;2023-02-15T00:08:31;5.50;90.50
7658;DHT22;8462;53.156;8.220;2023-02-15T00:11:05;5.50;90.50
7658;DHT22;8462;53.156;8.220;2023-02-15T00:13:32;5.50;90.30
7658;DHT22;8462;53.156;8.220;2023-02-15T00:16:02;5.40;90.20
7658;DHT22;8462;53.156;8.220;2023-02-15T00:18:29;5.50;90.30
7658;DHT22;8462;53.156;8.220;2023-02-15T00:20:56;5.40;90.30
7658;DHT22;8462;53.156;8.220;2023-02-15T00:23:23;5.50;90.20
7658;DHT22;8462;53.156;8.220;2023-02-15T00:25:51;5.40;90.20
7658;DHT22;8462;53.156;8.220;2023-02-15T00:28:18;5.30;90.20
7658;DHT22;8462;53.156;8.220;2023-02-15T00:30:45;5.30;90.40
7658;DHT22;8462;53.156;8.220;2023-02-15T00:33:12;5.20;90.40
7658;DHT22;8462;53.156;8.220;2023-02-15T00:35:39;5.10;90.50
7658;DHT22;8462;53.156;8.220;2023-02-15T00:38:06;5.10;90.60
7658;DHT22;8462;53.156;8.220;2023-02-15T00:40:33;5.10;90.60
7658;DHT22;8462;53.156;8.220;2023-02-15T00:43:02;5.10;90.60
7658;DHT22;8462;53.156;8.220;2023-02-15T00:45:29;5.00;90.70
7658;DHT22;8462;53.156;8.220;2023-02-15T00:47:56;4.90;90.90
7658;DHT22;8462;53.156;8.220;2023-02-15T00:50:23;4.90;91.00
7658;DHT22;8462;53.156;8.220;2023-02-15T00:52:50;4.90;90.80
7658;DHT22;8462;53.156;8.220;2023-02-15T00:55:17;4.90;90.90
7658;DHT22;8462;53.156;8.220;2023-02-15T00:57:44;4.80;91.10
7658;DHT22;8462;53.156;8.220;2023-02-15T01:00:13;4.80;91.10
7658;DHT22;8462;53.156;8.220;2023-02-15T01:02:40;4.80;91.30
7658;DHT22;8462;53.156;8.220;2023-02-15T01:05:07;4.80;91.30
7658;DHT22;8462;53.156;8.220;2023-02-15T01:07:34;4.80;91.40
7658;DHT22;8462;53.156;8.220;2023-02-15T01:10:01;4.80;91.20
7658;DHT22;8462;53.156;8.220;2023-02-15T01:12:27;4.80;91.10
7658;DHT22;8462;53.156;8.220;2023-02-15T01:14:54;4.80;91.00
7658;DHT22;8462;53.156;8.220;2023-02-15T01:17:23;4.70;91.00
7658;DHT22;8462;53.156;8.220;2023-02-15T01:19:50;4.60;91.10
7658;DHT22;8462;53.156;8.220;2023-02-15T01:22:19;4.60;91.30
7658;DHT22;8462;53.156;8.220;2023-02-15T01:24:48;4.60;91.60
7658;DHT22;8462;53.156;8.220;2023-02-15T01:27:15;4.60;91.60
7658;DHT22;8462;53.156;8.220;2023-02-15T01:29:43;4.60;91.40
7658;DHT22;8462;53.156;8.220;2023-02-15T01:32:10;4.70;91.40
7658;DHT22;8462;53.156;8.220;2023-02-15T01:34:38;4.70;91.30
7658;DHT22;8462;53.156;8.220;2023-02-15T01:37:05;4.70;91.10
7658;DHT22;8462;53.156;8.220;2023-02-15T01:39:31;4.70;91.00
7658;DHT22;8462;53.156;8.220;2023-02-15T01:41:58;4.60;91.10
7658;DHT22;8462;53.156;8.220;2023-02-15T01:44:56;4.60;91.30
7658;DHT22;8462;53.156;8.220;2023-02-15T01:47:27;4.60;91.20
7658;DHT22;8462;53.156;8.220;2023-02-15T01:50:03;4.60;91.10
7658;DHT22;8462;53.156;8.220;2023-02-15T01:52:34;4.60;91.10
7658;DHT22;8462;53.156;8.220;2023-02-15T01:55:03;4.60;90.80
7658;DHT22;8462;53.156;8.220;2023-02-15T01:57:30;4.60;90.90
7658;DHT22;8462;53.156;8.220;2023-02-15T01:59:59;4.60;91.00
7658;DHT22;8462;53.156;8.220;2023-02-15T02:02:38;4.60;90.90
7658;DHT22;8462;53.156;8.220;2023-02-15T02:05:07;4.60;91.00
7658;DHT22;8462;53.156;8.220;2023-02-15T02:07:36;4.60;91.20
7658;DHT22;8462;53.156;8.220;2023-02-15T02:10:06;4.60;91.20
7658;DHT22;8462;53.156;8.220;2023-02-15T02:12:34;4.60;91.10
7658;DHT22;8462;53.156;8.220;2023-02-15T02:15:03;4.60;90.90
7658;DHT22;8462;53.156;8.220;2023-02-15T02:17:37;4.60;90.80
7658;DHT22;8462;53.156;8.220;2023-02-15T02:20:33;4.50;90.70
7658;DHT22;8462;53.156;8.220;2023-02-15T02:23:25;4.50;90.80
7658;DHT22;8462;53.156;8.220;2023-02-15T02:26:30;4.50;90.80
7658;DHT22;8462;53.156;8.220;2023-02-15T02:35:09;4.40;91.10
7658;DHT22;8462;53.156;8.220;2023-02-15T02:37:47;4.40;91.10
7658;DHT22;8462;53.156;8.220;2023-02-15T02:40:20;4.40;91.10
7658;DHT22;8462;53.156;8.220;2023-02-15T02:42:52;4.40;91.00
7658;DHT22;8462;53.156;8.220;2023-02-15T02:45:25;4.40;91.40
7658;DHT22;8462;53.156;8.220;2023-02-15T02:47:56;4.40;90.90
7658;DHT22;8462;53.156;8.220;2023-02-15T02:50:28;4.30;90.80
7658;DHT22;8462;53.156;8.220;2023-02-15T02:52:57;4.30;90.90
7658;DHT22;8462;53.156;8.220;2023-02-15T02:55:30;4.30;90.80
7658;DHT22;8462;53.156;8.220;2023-02-15T02:58:02;4.30;90.80
7658;DHT22;8462;53.156;8.220;2023-02-15T03:00:32;4.30;90.70
7658;DHT22;8462;53.156;8.220;2023-02-15T03:03:05;4.20;90.70
7658;DHT22;8462;53.156;8.220;2023-02-15T03:05:37;4.20;90.70
7658;DHT22;8462;53.156;8.220;2023-02-15T03:08:07;4.10;90.70
7658;DHT22;8462;53.156;8.220;2023-02-15T03:10:37;4.10;90.80
7658;DHT22;8462;53.156;8.220;2023-02-15T03:13:05;4.00;90.90
7658;DHT22;8462;53.156;8.220;2023-02-15T03:15:35;4.00;90.90
7658;DHT22;8462;53.156;8.220;2023-02-15T03:18:18;4.00;90.90
7658;DHT22;8462;53.156;8.220;2023-02-15T03:20:49;4.00;91.00
7658;DHT22;8462;53.156;8.220;2023-02-15T03:23:21;4.00;90.90
7658;DHT22;8462;53.156;8.220;2023-02-15T03:25:51;4.00;90.90
7658;DHT22;8462;53.156;8.220;2023-02-15T03:28:27;3.90;90.80
7658;DHT22;8462;53.156;8.220;2023-02-15T03:30:58;3.90;90.80
7658;DHT22;8462;53.156;8.220;2023-02-15T03:33:28;3.90;90.80
7658;DHT22;8462;53.156;8.220;2023-02-15T03:36:01;3.90;90.70
7658;DHT22;8462;53.156;8.220;2023-02-15T03:38:34;3.90;90.70
7658;DHT22;8462;53.156;8.220;2023-02-15T03:41:03;3.80;90.70
7658;DHT22;8462;53.156;8.220;2023-02-15T03:43:43;3.70;90.70
7658;DHT22;8462;53.156;8.220;2023-02-15T03:46:17;3.70;90.90
7658;DHT22;8462;53.156;8.220;2023-02-15T03:48:50;3.60;91.00
7658;DHT22;8462;53.156;8.220;2023-02-15T03:51:21;3.70;91.20
7658;DHT22;8462;53.156;8.220;2023-02-15T03:54:04;3.60;91.30
7658;DHT22;8462;53.156;8.220;2023-02-15T03:56:33;3.70;91.30
7658;DHT22;8462;53.156;8.220;2023-02-15T03:59:01;3.70;91.00
7658;DHT22;8462;53.156;8.220;2023-02-15T04:01:51;3.70;90.80
7658;DHT22;8462;53.156;8.220;2023-02-15T04:04:28;3.70;90.70
7658;DHT22;8462;53.156;8.220;2023-02-15T04:06:59;3.60;90.80
7658;DHT22;8462;53.156;8.220;2023-02-15T04:09:26;3.70;90.90
7658;DHT22;8462;53.156;8.220;2023-02-15T04:12:10;3.60;90.80
7658;DHT22;8462;53.156;8.220;2023-02-15T04:14:37;3.60;90.90
7658;DHT22;8462;53.156;8.220;2023-02-15T04:17:21;3.50;91.00
7658;DHT22;8462;53.156;8.220;2023-02-15T04:19:48;3.50;91.10
7658;DHT22;8462;53.156;8.220;2023-02-15T04:22:34;3.50;91.20
7658;DHT22;8462;53.156;8.220;2023-02-15T04:25:18;3.50;91.00
7658;DHT22;8462;53.156;8.220;2023-02-15T04:27:48;3.40;90.90
7658;DHT22;8462;53.156;8.220;2023-02-15T04:30:17;3.50;91.00
7658;DHT22;8462;53.156;8.220;2023-02-15T04:32:44;3.40;91.20
7658;DHT22;8462;53.156;8.220;2023-02-15T04:35:12;3.50;91.30
7658;DHT22;8462;53.156;8.220;2023-02-15T04:37:40;3.50;91.30
7658;DHT22;8462;53.156;8.220;2023-02-15T04:40:08;3.40;91.30
7658;DHT22;8462;53.156;8.220;2023-02-15T04:42:35;3.50;91.30
7658;DHT22;8462;53.156;8.220;2023-02-15T04:45:03;3.50;91.30
7658;DHT22;8462;53.156;8.220;2023-02-15T04:47:30;3.50;91.30
7658;DHT22;8462;53.156;8.220;2023-02-15T04:49:57;3.50;91.10
7658;DHT22;8462;53.156;8.220;2023-02-15T04:52:24;3.40;91.20
7658;DHT22;8462;53.156;8.220;2023-02-15T04:54:52;3.40;91.20
7658;DHT22;8462;53.156;8.220;2023-02-15T04:57:19;3.40;91.30
7658;DHT22;8462;53.156;8.220;2023-02-15T04:59:46;3.40;91.40
7658;DHT22;8462;53.156;8.220;2023-02-15T05:02:13;3.40;91.40
7658;DHT22;8462;53.156;8.220;2023-02-15T05:04:39;3.40;91.40
7658;DHT22;8462;53.156;8.220;2023-02-15T05:07:06;3.50;91.60
7658;DHT22;8462;53.156;8.220;2023-02-15T05:09:33;3.50;91.50
7658;DHT22;8462;53.156;8.220;2023-02-15T05:12:02;3.50;91.40
7658;DHT22;8462;53.156;8.220;2023-02-15T05:14:28;3.60;91.30
7658;DHT22;8462;53.156;8.220;2023-02-15T05:16:55;3.60;90.90
7658;DHT22;8462;53.156;8.220;2023-02-15T05:19:25;3.50;90.90
7658;DHT22;8462;53.156;8.220;2023-02-15T05:21:52;3.50;91.10
7658;DHT22;8462;53.156;8.220;2023-02-15T05:24:19;3.50;91.20
7658;DHT22;8462;53.156;8.220;2023-02-15T05:27:04;3.40;91.00
7658;DHT22;8462;53.156;8.220;2023-02-15T05:29:48;3.50;91.30
7658;DHT22;8462;53.156;8.220;2023-02-15T05:32:15;3.40;91.30
7658;DHT22;8462;53.156;8.220;2023-02-15T05:34:42;3.40;91.00
7658;DHT22;8462;53.156;8.220;2023-02-15T05:37:09;3.40;91.20
7658;DHT22;8462;53.156;8.220;2023-02-15T05:39:36;3.40;91.10
7658;DHT22;8462;53.156;8.220;2023-02-15T05:42:04;3.40;91.10
7658;DHT22;8462;53.156;8.220;2023-02-15T05:44:31;3.50;91.20
7658;DHT22;8462;53.156;8.220;2023-02-15T05:46:58;3.50;91.20
7658;DHT22;8462;53.156;8.220;2023-02-15T05:49:26;3.50;90.90
7658;DHT22;8462;53.156;8.220;2023-02-15T05:51:53;3.50;90.80
7658;DHT22;8462;53.156;8.220;2023-02-15T05:54:19;3.50;90.80
7658;DHT22;8462;53.156;8.220;2023-02-15T05:56:46;3.50;90.90
7658;DHT22;8462;53.156;8.220;2023-02-15T05:59:15;3.50;91.10
7658;DHT22;8462;53.156;8.220;2023-02-15T06:01:42;3.50;90.90
7658;DHT22;8462;53.156;8.220;2023-02-15T06:04:08;3.50;91.00
7658;DHT22;8462;53.156;8.220;2023-02-15T06:06:36;3.40;90.80
7658;DHT22;8462;53.156;8.220;2023-02-15T06:09:03;3.40;90.90
7658;DHT22;8462;53.156;8.220;2023-02-15T06:11:29;3.50;91.00
7658;DHT22;8462;53.156;8.220;2023-02-15T06:13:56;3.50;90.90
7658;DHT22;8462;53.156;8.220;2023-02-15T06:16:24;3.50;90.90
7658;DHT22;8462;53.156;8.220;2023-02-15T06:18:51;3.50;90.80
7658;DHT22;8462;53.156;8.220;2023-02-15T06:21:18;3.50;90.60
7658;DHT22;8462;53.156;8.220;2023-02-15T06:23:45;3.50;90.80
7658;DHT22;8462;53.156;8.220;2023-02-15T06:26:12;3.50;90.70
7658;DHT22;8462;53.156;8.220;2023-02-15T06:28:39;3.40;90.60
7658;DHT22;8462;53.156;8.220;2023-02-15T06:31:06;3.40;90.60
7658;DHT22;8462;53.156;8.220;2023-02-15T06:33:34;3.30;90.60
7658;DHT22;8462;53.156;8.220;2023-02-15T06:36:02;3.30;90.80
7658;DHT22;8462;53.156;8.220;2023-02-15T06:38:29;3.40;91.10
7658;DHT22;8462;53.156;8.220;2023-02-15T06:40:56;3.40;90.80
7658;DHT22;8462;53.156;8.220;2023-02-15T06:43:23;3.40;90.60
7658;DHT22;8462;53.156;8.220;2023-02-15T06:45:50;3.40;90.60
7658;DHT22;8462;53.156;8.220;2023-02-15T06:48:16;3.40;90.60
7658;DHT22;8462;53.156;8.220;2023-02-15T06:50:48;3.40;90.50
7658;DHT22;8462;53.156;8.220;2023-02-15T06:53:15;3.30;90.60
7658;DHT22;8462;53.156;8.220;2023-02-15T06:55:42;3.30;90.70
7658;DHT22;8462;53.156;8.220;2023-02-15T06:58:09;3.30;90.50
7658;DHT22;8462;53.156;8.220;2023-02-15T07:00:36;3.30;90.40
7658;DHT22;8462;53.156;8.220;2023-02-15T07:03:03;3.30;90.60
7658;DHT22;8462;53.156;8.220;2023-02-15T07:05:33;3.30;90.70
7658;DHT22;8462;53.156;8.220;2023-02-15T07:08:01;3.30;90.50
7658;DHT22;8462;53.156;8.220;2023-02-15T07:10:28;3.30;90.50
7658;DHT22;8462;53.156;8.220;2023-02-15T07:12:55;3.40;90.60
7658;DHT22;8462;53.156;8.220;2023-02-15T07:15:21;3.40;90.50
7658;DHT22;8462;53.156;8.220;2023-02-15T07:17:48;3.40;90.30
7658;DHT22;8462;53.156;8.220;2023-02-15T07:20:17;3.40;90.40
7658;DHT22;8462;53.156;8.220;2023-02-15T07:22:45;3.40;90.30
7658;DHT22;8462;53.156;8.220;2023-02-15T07:25:13;3.50;90.50
7658;DHT22;8462;53.156;8.220;2023-02-15T07:27:41;3.50;90.40
7658;DHT22;8462;53.156;8.220;2023-02-15T07:30:09;3.50;90.40
7658;DHT22;8462;53.156;8.220;2023-02-15T07:32:37;3.60;90.40
7658;DHT22;8462;53.156;8.220;2023-02-15T07:35:24;3.70;91.10
7658;DHT22;8462;53.156;8.220;2023-02-15T07:37:51;3.80;90.50
7658;DHT22;8462;53.156;8.220;2023-02-15T07:40:22;3.90;90.80
7658;DHT22;8462;53.156;8.220;2023-02-15T07:42:49;4.00;90.50
7658;DHT22;8462;53.156;8.220;2023-02-15T07:45:18;4.20;90.60
7658;DHT22;8462;53.156;8.220;2023-02-15T07:47:45;4.30;90.60
7658;DHT22;8462;53.156;8.220;2023-02-15T07:50:12;4.50;90.70
7658;DHT22;8462;53.156;8.220;2023-02-15T07:52:39;4.70;90.60
7658;DHT22;8462;53.156;8.220;2023-02-15T07:55:06;4.80;90.30
7658;DHT22;8462;53.156;8.220;2023-02-15T07:57:36;5.00;90.10
7658;DHT22;8462;53.156;8.220;2023-02-15T08:00:03;5.10;89.40
7658;DHT22;8462;53.156;8.220;2023-02-15T08:02:38;5.10;88.90
7658;DHT22;8462;53.156;8.220;2023-02-15T08:05:05;5.30;88.70
7658;DHT22;8462;53.156;8.220;2023-02-15T08:07:33;5.40;89.30
7658;DHT22;8462;53.156;8.220;2023-02-15T08:10:00;5.50;89.30
7658;DHT22;8462;53.156;8.220;2023-02-15T08:12:27;5.70;88.90
7658;DHT22;8462;53.156;8.220;2023-02-15T08:14:56;5.90;89.00
7658;DHT22;8462;53.156;8.220;2023-02-15T08:17:22;6.00;89.30
7658;DHT22;8462;53.156;8.220;2023-02-15T08:19:49;6.20;89.40
7658;DHT22;8462;53.156;8.220;2023-02-15T08:22:16;6.40;89.30
7658;DHT22;8462;53.156;8.220;2023-02-15T08:24:43;6.60;89.20
7658;DHT22;8462;53.156;8.220;2023-02-15T08:27:11;6.80;89.30
7658;DHT22;8462;53.156;8.220;2023-02-15T08:29:38;7.00;88.90
7658;DHT22;8462;53.156;8.220;2023-02-15T08:32:09;7.10;88.10
7658;DHT22;8462;53.156;8.220;2023-02-15T08:34:39;7.20;87.20
7658;DHT22;8462;53.156;8.220;2023-02-15T08:37:06;7.40;87.30
7658;DHT22;8462;53.156;8.220;2023-02-15T08:39:34;7.50;86.90
7658;DHT22;8462;53.156;8.220;2023-02-15T08:42:01;7.70;87.00
7658;DHT22;8462;53.156;8.220;2023-02-15T08:44:28;7.90;87.00
7658;DHT22;8462;53.156;8.220;2023-02-15T08:46:55;8.10;86.60
7658;DHT22;8462;53.156;8.220;2023-02-15T08:49:29;8.20;85.40
7658;DHT22;8462;53.156;8.220;2023-02-15T08:51:56;8.40;85.20
7658;DHT22;8462;53.156;8.220;2023-02-15T08:54:23;8.50;84.20
7658;DHT22;8462;53.156;8.220;2023-02-15T08:56:50;8.60;83.40
7658;DHT22;8462;53.156;8.220;2023-02-15T08:59:19;8.70;83.70
7658;DHT22;8462;53.156;8.220;2023-02-15T09:01:47;8.80;82.30
7658;DHT22;8462;53.156;8.220;2023-02-15T09:04:15;9.00;82.00
7658;DHT22;8462;53.156;8.220;2023-02-15T09:06:47;9.10;81.80
7658;DHT22;8462;53.156;8.220;2023-02-15T09:09:16;9.30;81.80
7658;DHT22;8462;53.156;8.220;2023-02-15T09:11:45;9.40;81.10
7658;DHT22;8462;53.156;8.220;2023-02-15T09:14:13;9.40;80.40
7658;DHT22;8462;53.156;8.220;2023-02-15T09:16:42;9.50;80.60
7658;DHT22;8462;53.156;8.220;2023-02-15T09:19:10;9.70;81.00
7658;DHT22;8462;53.156;8.220;2023-02-15T09:21:38;9.90;81.00
7658;DHT22;8462;53.156;8.220;2023-02-15T09:24:08;10.00;80.20
7658;DHT22;8462;53.156;8.220;2023-02-15T09:26:37;10.10;79.40
7658;DHT22;8462;53.156;8.220;2023-02-15T09:29:04;10.10;78.30
7658;DHT22;8462;53.156;8.220;2023-02-15T09:31:34;10.20;78.40
7658;DHT22;8462;53.156;8.220;2023-02-15T09:34:06;10.30;77.80
7658;DHT22;8462;53.156;8.220;2023-02-15T09:36:35;10.40;78.10
7658;DHT22;8462;53.156;8.220;2023-02-15T09:39:09;10.40;77.30
7658;DHT22;8462;53.156;8.220;2023-02-15T09:42:04;10.50;77.30
7658;DHT22;8462;53.156;8.220;2023-02-15T09:47:53;10.50;76.60
7658;DHT22;8462;53.156;8.220;2023-02-15T09:50:32;10.60;76.80
7658;DHT22;8462;53.156;8.220;2023-02-15T09:53:22;10.70;77.30
7658;DHT22;8462;53.156;8.220;2023-02-15T09:56:00;10.70;75.90
7658;DHT22;8462;53.156;8.220;2023-02-15T09:58:44;10.80;76.20
7658;DHT22;8462;53.156;8.220;2023-02-15T10:01:20;10.90;76.00
7658;DHT22;8462;53.156;8.220;2023-02-15T10:04:09;10.90;76.10
7658;DHT22;8462;53.156;8.220;2023-02-15T10:06:43;11.00;75.40
7658;DHT22;8462;53.156;8.220;2023-02-15T10:09:29;11.20;75.50
7658;DHT22;8462;53.156;8.220;2023-02-15T10:12:12;11.20;74.70
7658;DHT22;8462;53.156;8.220;2023-02-15T10:14:55;11.20;75.60
7658;DHT22;8462;53.156;8.220;2023-02-15T10:17:32;11.40;75.40
7658;DHT22;8462;53.156;8.220;2023-02-15T10:20:12;11.50;75.00
7658;DHT22;8462;53.156;8.220;2023-02-15T10:23:00;11.50;73.90
7658;DHT22;8462;53.156;8.220;2023-02-15T10:25:39;11.50;73.50
7658;DHT22;8462;53.156;8.220;2023-02-15T10:28:16;11.40;73.90
7658;DHT22;8462;53.156;8.220;2023-02-15T10:30:47;11.50;74.10
7658;DHT22;8462;53.156;8.220;2023-02-15T10:33:26;11.50;74.50
7658;DHT22;8462;53.156;8.220;2023-02-15T10:36:04;11.70;74.50
7658;DHT22;8462;53.156;8.220;2023-02-15T10:38:38;11.70;73.60
7658;DHT22;8462;53.156;8.220;2023-02-15T10:41:25;11.80;74.30
7658;DHT22;8462;53.156;8.220;2023-02-15T10:44:10;11.90;74.40
7658;DHT22;8462;53.156;8.220;2023-02-15T10:46:52;11.90;73.40
7658;DHT22;8462;53.156;8.220;2023-02-15T10:49:32;11.90;73.40
7658;DHT22;8462;53.156;8.220;2023-02-15T10:52:22;11.90;73.30
7658;DHT22;8462;53.156;8.220;2023-02-15T10:55:02;12.00;72.70
7658;DHT22;8462;53.156;8.220;2023-02-15T10:57:40;12.00;72.80
7658;DHT22;8462;53.156;8.220;2023-02-15T11:00:15;12.20;73.20
7658;DHT22;8462;53.156;8.220;2023-02-15T11:02:58;12.30;72.80
7658;DHT22;8462;53.156;8.220;2023-02-15T11:05:39;12.40;72.10
7658;DHT22;8462;53.156;8.220;2023-02-15T11:08:10;12.40;72.10
7658;DHT22;8462;53.156;8.220;2023-02-15T11:10:41;12.40;71.80
7658;DHT22;8462;53.156;8.220;2023-02-15T11:13:13;12.50;71.30
7658;DHT22;8462;53.156;8.220;2023-02-15T11:15:45;12.50;71.10
7658;DHT22;8462;53.156;8.220;2023-02-15T11:18:19;12.60;71.30
7658;DHT22;8462;53.156;8.220;2023-02-15T11:20:53;12.60;70.80
7658;DHT22;8462;53.156;8.220;2023-02-15T11:23:21;12.60;71.10
7658;DHT22;8462;53.156;8.220;2023-02-15T11:25:56;12.60;71.30
7658;DHT22;8462;53.156;8.220;2023-02-15T11:28:29;12.70;71.50
7658;DHT22;8462;53.156;8.220;2023-02-15T11:31:02;12.70;71.60
7658;DHT22;8462;53.156;8.220;2023-02-15T11:33:33;12.80;71.60
7658;DHT22;8462;53.156;8.220;2023-02-15T11:36:07;12.70;70.80
7658;DHT22;8462;53.156;8.220;2023-02-15T11:38:36;12.80;71.60
7658;DHT22;8462;53.156;8.220;2023-02-15T11:41:09;12.80;71.50
7658;DHT22;8462;53.156;8.220;2023-02-15T11:43:38;12.90;71.50
7658;DHT22;8462;53.156;8.220;2023-02-15T11:46:11;12.90;71.40
7658;DHT22;8462;53.156;8.220;2023-02-15T11:48:38;12.90;72.00
7658;DHT22;8462;53.156;8.220;2023-02-15T11:51:08;12.90;71.40
7658;DHT22;8462;53.156;8.220;2023-02-15T11:53:38;12.90;71.10
7658;DHT22;8462;53.156;8.220;2023-02-15T11:56:13;12.90;70.80
7658;DHT22;8462;53.156;8.220;2023-02-15T11:58:44;12.90;71.70
7658;DHT22;8462;53.156;8.220;2023-02-15T12:01:15;13.00;71.60
7658;DHT22;8462;53.156;8.220;2023-02-15T12:03:47;13.10;71.10
7658;DHT22;8462;53.156;8.220;2023-02-15T12:06:20;13.10;71.20
7658;DHT22;8462;53.156;8.220;2023-02-15T12:08:54;13.20;70.60
7658;DHT22;8462;53.156;8.220;2023-02-15T12:11:27;13.20;70.50
7658;DHT22;8462;53.156;8.220;2023-02-15T12:14:01;13.30;70.40
7658;DHT22;8462;53.156;8.220;2023-02-15T12:16:32;13.30;70.00
7658;DHT22;8462;53.156;8.220;2023-02-15T12:19:02;13.30;69.80
7658;DHT22;8462;53.156;8.220;2023-02-15T12:21:31;13.30;69.90
7658;DHT22;8462;53.156;8.220;2023-02-15T12:24:03;13.30;69.90
7658;DHT22;8462;53.156;8.220;2023-02-15T12:26:36;13.30;70.10
7658;DHT22;8462;53.156;8.220;2023-02-15T12:29:11;13.30;70.10
7658;DHT22;8462;53.156;8.220;2023-02-15T12:31:43;13.40;70.30
7658;DHT22;8462;53.156;8.220;2023-02-15T12:34:17;13.50;69.80
7658;DHT22;8462;53.156;8.220;2023-02-15T12:36:49;13.50;69.80
7658;DHT22;8462;53.156;8.220;2023-02-15T12:39:22;13.50;69.60
7658;DHT22;8462;53.156;8.220;2023-02-15T12:42:03;13.60;70.00
7658;DHT22;8462;53.156;8.220;2023-02-15T12:44:33;13.60;69.30
7658;DHT22;8462;53.156;8.220;2023-02-15T12:47:04;13.70;69.20
7658;DHT22;8462;53.156;8.220;2023-02-15T12:49:32;13.70;69.00
7658;DHT22;8462;53.156;8.220;2023-02-15T12:52:01;13.70;70.10
7658;DHT22;8462;53.156;8.220;2023-02-15T12:54:39;13.80;69.10
7658;DHT22;8462;53.156;8.220;2023-02-15T12:57:22;13.80;69.30
7658;DHT22;8462;53.156;8.220;2023-02-15T12:59:53;13.90;69.20
7658;DHT22;8462;53.156;8.220;2023-02-15T13:02:28;14.00;69.10
7658;DHT22;8462;53.156;8.220;2023-02-15T13:05:03;14.10;69.10
7658;DHT22;8462;53.156;8.220;2023-02-15T13:07:31;14.10;68.30
7658;DHT22;8462;53.156;8.220;2023-02-15T13:09:58;14.10;68.40
7658;DHT22;8462;53.156;8.220;2023-02-15T13:12:27;14.10;68.00
7658;DHT22;8462;53.156;8.220;2023-02-15T13:14:57;14.10;68.40
7658;DHT22;8462;53.156;8.220;2023-02-15T13:17:28;14.10;68.30
7658;DHT22;8462;53.156;8.220;2023-02-15T13:19:59;14.20;68.60
7658;DHT22;8462;53.156;8.220;2023-02-15T13:22:33;14.20;68.10
7658;DHT22;8462;53.156;8.220;2023-02-15T13:25:05;14.30;68.30
7658;DHT22;8462;53.156;8.220;2023-02-15T13:27:38;14.30;67.80
7658;DHT22;8462;53.156;8.220;2023-02-15T13:30:17;14.30;67.40
7658;DHT22;8462;53.156;8.220;2023-02-15T13:32:49;14.40;68.10
7658;DHT22;8462;53.156;8.220;2023-02-15T13:35:18;14.60;67.80
7658;DHT22;8462;53.156;8.220;2023-02-15T13:38:11;14.60;67.10
7658;DHT22;8462;53.156;8.220;2023-02-15T13:40:46;14.60;67.00
7658;DHT22;8462;53.156;8.220;2023-02-15T13:43:24;14.60;66.90
7658;DHT22;8462;53.156;8.220;2023-02-15T13:46:01;14.60;66.30
7658;DHT22;8462;53.156;8.220;2023-02-15T13:48:40;14.60;67.00
7658;DHT22;8462;53.156;8.220;2023-02-15T13:51:13;14.60;66.80
7658;DHT22;8462;53.156;8.220;2023-02-15T13:54:03;14.60;66.50
7658;DHT22;8462;53.156;8.220;2023-02-15T13:56:44;14.60;66.70
7658;DHT22;8462;53.156;8.220;2023-02-15T13:59:43;14.50;66.70
7658;DHT22;8462;53.156;8.220;2023-02-15T14:02:35;14.50;66.80
7658;DHT22;8462;53.156;8.220;2023-02-15T14:05:29;14.50;66.40
7658;DHT22;8462;53.156;8.220;2023-02-15T14:08:05;14.50;67.00
7658;DHT22;8462;53.156;8.220;2023-02-15T14:10:47;14.50;66.80
7658;DHT22;8462;53.156;8.220;2023-02-15T14:13:44;14.50;67.00
7658;DHT22;8462;53.156;8.220;2023-02-15T14:16:19;14.50;66.70
7658;DHT22;8462;53.156;8.220;2023-02-15T14:18:51;14.40;66.70
7658;DHT22;8462;53.156;8.220;2023-02-15T14:21:29;14.40;67.20
7658;DHT22;8462;53.156;8.220;2023-02-15T14:24:08;14.50;67.10
7658;DHT22;8462;53.156;8.220;2023-02-15T14:26:47;14.40;66.80
7658;DHT22;8462;53.156;8.220;2023-02-15T14:29:23;14.40;66.80
7658;DHT22;8462;53.156;8.220;2023-02-15T14:31:54;14.30;66.70
7658;DHT22;8462;53.156;8.220;2023-02-15T14:34:23;14.30;66.70
7658;DHT22;8462;53.156;8.220;2023-02-15T14:36:52;14.20;67.00
7658;DHT22;8462;53.156;8.220;2023-02-15T14:39:29;14.20;67.30
7658;DHT22;8462;53.156;8.220;2023-02-15T14:42:20;14.20;67.50
7658;DHT22;8462;53.156;8.220;2023-02-15T14:44:54;14.20;67.80
7658;DHT22;8462;53.156;8.220;2023-02-15T14:47:25;14.10;67.30
7658;DHT22;8462;53.156;8.220;2023-02-15T14:49:57;14.10;67.60
7658;DHT22;8462;53.156;8.220;2023-02-15T14:52:26;14.10;67.70
7658;DHT22;8462;53.156;8.220;2023-02-15T14:54:55;14.10;67.70
7658;DHT22;8462;53.156;8.220;2023-02-15T14:57:27;14.00;67.40
7658;DHT22;8462;53.156;8.220;2023-02-15T14:59:59;14.00;67.60
7658;DHT22;8462;53.156;8.220;2023-02-15T15:02:29;14.00;67.60
7658;DHT22;8462;53.156;8.220;2023-02-15T15:05:07;14.00;67.10
7658;DHT22;8462;53.156;8.220;2023-02-15T15:07:41;13.90;67.10
7658;DHT22;8462;53.156;8.220;2023-02-15T15:10:35;13.90;67.40
7658;DHT22;8462;53.156;8.220;2023-02-15T15:13:35;13.90;67.30
7658;DHT22;8462;53.156;8.220;2023-02-15T15:16:46;13.90;67.40
7658;DHT22;8462;53.156;8.220;2023-02-15T15:19:58;13.80;67.90
7658;DHT22;8462;53.156;8.220;2023-02-15T15:22:26;13.70;67.20
7658;DHT22;8462;53.156;8.220;2023-02-15T15:24:56;13.70;67.40
7658;DHT22;8462;53.156;8.220;2023-02-15T15:27:46;13.60;67.60
7658;DHT22;8462;53.156;8.220;2023-02-15T15:30:47;13.60;67.80
7658;DHT22;8462;53.156;8.220;2023-02-15T15:39:27;13.40;68.10
7658;DHT22;8462;53.156;8.220;2023-02-15T15:42:10;13.40;68.10
7658;DHT22;8462;53.156;8.220;2023-02-15T15:47:54;13.30;68.40
7658;DHT22;8462;53.156;8.220;2023-02-15T15:50:24;13.20;68.60
7658;DHT22;8462;53.156;8.220;2023-02-15T15:52:54;13.20;68.90
7658;DHT22;8462;53.156;8.220;2023-02-15T15:55:23;13.10;68.90
7658;DHT22;8462;53.156;8.220;2023-02-15T15:57:54;13.10;69.10
7658;DHT22;8462;53.156;8.220;2023-02-15T16:00:37;13.00;69.20
7658;DHT22;8462;53.156;8.220;2023-02-15T16:03:14;13.00;69.50
7658;DHT22;8462;53.156;8.220;2023-02-15T16:05:41;12.90;69.70
7658;DHT22;8462;53.156;8.220;2023-02-15T16:08:08;12.90;69.80
7658;DHT22;8462;53.156;8.220;2023-02-15T16:10:35;12.90;70.00
7658;DHT22;8462;53.156;8.220;2023-02-15T16:13:05;12.80;70.00
7658;DHT22;8462;53.156;8.220;2023-02-15T16:15:35;12.80;70.20
7658;DHT22;8462;53.156;8.220;2023-02-15T16:18:03;12.70;70.20
7658;DHT22;8462;53.156;8.220;2023-02-15T16:20:32;12.70;70.40
7658;DHT22;8462;53.156;8.220;2023-02-15T16:23:12;12.60;70.70
7658;DHT22;8462;53.156;8.220;2023-02-15T16:25:49;12.50;71.80
7658;DHT22;8462;53.156;8.220;2023-02-15T16:28:21;12.50;71.00
7658;DHT22;8462;53.156;8.220;2023-02-15T16:30:58;12.40;71.10
7658;DHT22;8462;53.156;8.220;2023-02-15T16:33:35;12.40;71.30
7658;DHT22;8462;53.156;8.220;2023-02-15T16:36:04;12.30;71.50
7658;DHT22;8462;53.156;8.220;2023-02-15T16:41:36;12.20;71.80
7658;DHT22;8462;53.156;8.220;2023-02-15T16:44:09;12.10;71.90
7658;DHT22;8462;53.156;8.220;2023-02-15T16:46:40;12.10;72.20
7658;DHT22;8462;53.156;8.220;2023-02-15T16:49:19;12.00;72.40
7658;DHT22;8462;53.156;8.220;2023-02-15T16:51:56;12.00;72.40
7658;DHT22;8462;53.156;8.220;2023-02-15T16:54:25;11.90;72.80
7658;DHT22;8462;53.156;8.220;2023-02-15T16:56:53;11.80;73.40
7658;DHT22;8462;53.156;8.220;2023-02-15T16:59:29;11.70;73.70
7658;DHT22;8462;53.156;8.220;2023-02-15T17:01:58;11.70;74.00
7658;DHT22;8462;53.156;8.220;2023-02-15T17:04:29;11.60;74.00